Time;durP1;ratioP1;P1;durP2;ratioP2;P2;SDS_P1;SDS_P2;PMS_P1;PMS_P2;Temp;Humidity;BMP_temperature;BMP_pressure;BME280_temperature;BME280_humidity;BME280_pressure;Samples;Min_cycle;Max_cycle;Signal;HPM_P1;HPM_P2
2021/01/30 00:02:20;;;;;;;9.27;5.80;;;4.70;96.70;;;;;;5015951;28;20037;-88
2021/01/30 00:04:48;;;;;;;9.70;6.32;;;4.80;96.50;;;;;;5001663;28;20017;-88
2021/01/30 00:07:14;;;;;;;11.45;6.82;;;4.80;96.60;;;;;;5013339;28;20040;-88
2021/01/30 00:09:39;;;;;;;9.32;6.93;;;4.80;96.60;;;;;;5008624;28;20038;-88
2021/01/30 00:12:06;;;;;;;11.32;7.80;;;4.80;96.70;;;;;;5010246;28;20092;-88
2021/01/30 00:14:34;;;;;;;11.00;8.18;;;4.70;96.90;;;;;;5023685;28;20059;-88
2021/01/30 00:17:01;;;;;;;11.75;8.38;;;4.70;96.80;;;;;;5015220;28;20044;-88
2021/01/30 00:19:29;;;;;;;10.82;8.15;;;4.70;96.90;;;;;;5011449;28;20029;-88
2021/01/30 00:22:10;;;;;;;11.88;8.73;;;4.70;97.00;;;;;;5007104;28;20022;-88
2021/01/30 00:24:42;;;;;;;11.27;8.93;;;4.70;97.10;;;;;;5008754;28;20026;-88
2021/01/30 00:27:11;;;;;;;13.18;10.07;;;4.70;97.10;;;;;;4995033;28;20156;-88
2021/01/30 00:29:37;;;;;;;14.18;9.63;;;4.70;97.20;;;;;;5004507;28;20553;-88
2021/01/30 00:32:03;;;;;;;14.80;9.90;;;4.70;97.00;;;;;;5012699;28;20492;-88
2021/01/30 00:34:30;;;;;;;12.82;9.48;;;4.70;97.10;;;;;;5012439;28;20022;-88
2021/01/30 00:37:00;;;;;;;12.07;8.82;;;4.70;97.20;;;;;;5028765;28;20124;-88
2021/01/30 00:39:26;;;;;;;13.90;9.40;;;4.70;97.30;;;;;;5016013;28;20088;-88
2021/01/30 00:41:52;;;;;;;14.07;10.48;;;4.70;97.40;;;;;;4998697;28;20037;-86
2021/01/30 00:44:17;;;;;;;14.00;10.23;;;4.70;97.50;;;;;;4983568;28;20022;-88
2021/01/30 00:46:48;;;;;;;15.43;10.80;;;4.70;97.40;;;;;;5001202;28;20029;-88
2021/01/30 00:49:13;;;;;;;16.05;10.63;;;4.70;97.40;;;;;;5004484;28;20026;-88
2021/01/30 00:51:39;;;;;;;15.68;11.73;;;4.70;97.40;;;;;;4990145;28;20378;-88
2021/01/30 00:54:05;;;;;;;16.75;12.02;;;4.70;97.40;;;;;;5013350;28;20029;-88
2021/01/30 00:56:30;;;;;;;17.10;12.13;;;4.70;97.50;;;;;;5007670;28;20137;-88
2021/01/30 00:58:56;;;;;;;17.00;11.68;;;4.70;97.40;;;;;;5026929;28;20026;-88
2021/01/30 01:01:22;;;;;;;17.95;11.43;;;4.60;97.50;;;;;;4998946;28;20030;-88
2021/01/30 01:03:47;;;;;;;18.42;11.60;;;4.60;97.50;;;;;;4996052;28;20029;-88
2021/01/30 01:06:13;;;;;;;18.20;12.65;;;4.60;97.50;;;;;;5016985;28;20018;-88
2021/01/30 01:08:40;;;;;;;17.80;12.43;;;4.60;97.50;;;;;;5007163;28;20105;-88
2021/01/30 01:11:05;;;;;;;20.35;13.63;;;4.60;97.50;;;;;;4999339;28;20026;-88
2021/01/30 01:13:31;;;;;;;18.45;12.80;;;4.60;97.60;;;;;;5014135;28;20025;-88
2021/01/30 01:15:58;;;;;;;17.40;12.45;;;4.50;97.60;;;;;;5020436;28;20022;-88
2021/01/30 01:18:24;;;;;;;19.92;14.27;;;4.50;97.70;;;;;;5018525;28;20030;-88
2021/01/30 01:20:50;;;;;;;18.70;12.85;;;4.60;97.70;;;;;;5011901;28;20022;-88
2021/01/30 01:23:16;;;;;;;18.17;13.15;;;4.50;97.70;;;;;;5018935;28;20363;-88
2021/01/30 01:25:43;;;;;;;20.25;13.82;;;4.50;97.70;;;;;;4999220;28;20041;-87
2021/01/30 01:28:08;;;;;;;23.98;15.35;;;4.50;97.70;;;;;;5000506;28;20030;-88
2021/01/30 01:30:34;;;;;;;22.00;15.57;;;4.50;97.60;;;;;;5008506;28;20024;-88
2021/01/30 01:33:00;;;;;;;22.50;15.32;;;4.50;97.60;;;;;;4988545;28;20398;-88
2021/01/30 01:35:29;;;;;;;20.95;14.32;;;4.40;97.50;;;;;;4997219;28;20050;-85
2021/01/30 01:37:55;;;;;;;20.30;14.40;;;4.40;97.60;;;;;;5009969;28;20061;-87
2021/01/30 01:40:28;;;;;;;26.65;16.50;;;4.40;97.70;;;;;;5029803;28;20123;-87
2021/01/30 01:42:59;;;;;;;23.02;15.70;;;4.40;97.60;;;;;;5028340;28;20067;-85
2021/01/30 01:45:24;;;;;;;24.40;16.52;;;4.40;97.50;;;;;;5025523;28;20034;-87
2021/01/30 01:47:50;;;;;;;21.90;15.18;;;4.40;97.50;;;;;;5034056;28;20036;-87
2021/01/30 01:50:25;;;;;;;21.08;14.20;;;4.30;97.50;;;;;;5020071;28;20030;-87
2021/01/30 01:52:52;;;;;;;25.17;16.52;;;4.30;97.60;;;;;;5032947;28;20030;-85
2021/01/30 01:55:21;;;;;;;24.15;16.10;;;4.30;97.60;;;;;;5015122;28;20046;-87
2021/01/30 01:58:00;;;;;;;22.52;15.32;;;4.20;97.50;;;;;;5024593;28;20029;-86
2021/01/30 02:00:26;;;;;;;21.38;15.43;;;4.20;97.30;;;;;;5011146;28;20025;-87
2021/01/30 02:02:54;;;;;;;18.13;13.50;;;4.20;97.30;;;;;;4988721;28;20554;-87
2021/01/30 02:05:32;;;;;;;18.23;13.40;;;4.10;97.40;;;;;;5023203;28;20144;-87
2021/01/30 02:08:07;;;;;;;17.27;12.68;;;4.10;97.40;;;;;;5024042;28;20032;-86
2021/01/30 02:10:44;;;;;;;17.27;12.27;;;4.10;97.50;;;;;;5021828;28;20025;-86
2021/01/30 02:13:34;;;;;;;16.10;11.52;;;4.00;97.50;;;;;;5000599;28;20113;-86
2021/01/30 02:16:17;;;;;;;18.15;12.45;;;4.00;97.60;;;;;;5004064;28;20065;-87
2021/01/30 02:19:30;;;;;;;19.30;13.23;;;4.00;97.60;;;;;;5012087;28;20029;-87
2021/01/30 02:22:14;;;;;;;17.33;12.63;;;4.00;97.60;;;;;;5022373;28;20084;-87
2021/01/30 02:24:58;;;;;;;14.57;11.13;;;4.00;97.60;;;;;;5022536;28;20072;-86
2021/01/30 02:28:00;;;;;;;16.92;11.40;;;3.90;97.60;;;;;;5016559;28;20466;-86
2021/01/30 02:30:42;;;;;;;15.52;11.10;;;3.90;97.50;;;;;;5005520;28;20508;-86
2021/01/30 02:33:38;;;;;;;17.25;11.38;;;3.90;97.50;;;;;;5016683;28;20030;-87
2021/01/30 02:36:37;;;;;;;18.38;12.68;;;3.80;97.50;;;;;;5021546;28;20030;-86
2021/01/30 02:39:33;;;;;;;17.88;12.05;;;3.80;97.50;;;;;;4998343;28;20107;-86
2021/01/30 02:42:22;;;;;;;17.38;12.13;;;3.80;97.50;;;;;;5017161;28;20022;-86
2021/01/30 02:45:02;;;;;;;16.88;10.70;;;3.80;97.60;;;;;;5018532;28;20080;-86
2021/01/30 02:47:32;;;;;;;16.27;11.48;;;3.80;97.70;;;;;;5036044;28;20029;-86
2021/01/30 02:50:09;;;;;;;15.88;11.40;;;3.70;97.60;;;;;;5014206;28;20075;-86
2021/01/30 02:52:37;;;;;;;16.17;11.20;;;3.70;97.60;;;;;;5003732;28;20021;-86
2021/01/30 02:55:07;;;;;;;15.52;10.55;;;3.70;97.60;;;;;;4998152;28;20042;-86
2021/01/30 02:57:35;;;;;;;15.43;10.40;;;3.70;97.70;;;;;;5010621;28;20034;-86
2021/01/30 03:00:05;;;;;;;15.27;10.73;;;3.70;97.70;;;;;;5011036;28;20029;-86
2021/01/30 03:02:30;;;;;;;16.17;11.30;;;3.70;97.70;;;;;;5022374;28;20100;-86
2021/01/30 03:04:59;;;;;;;16.45;11.30;;;3.70;97.80;;;;;;5022423;28;20058;-86
2021/01/30 03:07:40;;;;;;;18.20;12.27;;;3.70;97.70;;;;;;5002770;28;20029;-86
2021/01/30 03:10:19;;;;;;;16.50;11.55;;;3.60;97.60;;;;;;5016587;28;20056;-86
2021/01/30 03:13:15;;;;;;;14.68;9.65;;;3.60;97.60;;;;;;4998047;28;20025;-86
2021/01/30 03:15:55;;;;;;;16.00;11.05;;;3.60;97.70;;;;;;5010926;28;20045;-86
2021/01/30 03:18:32;;;;;;;16.08;10.80;;;3.60;97.80;;;;;;5004755;28;20478;-86
2021/01/30 03:20:59;;;;;;;15.85;11.18;;;3.60;97.80;;;;;;5019826;28;20030;-86
2021/01/30 03:23:25;;;;;;;15.93;10.55;;;3.60;97.80;;;;;;5010287;28;20029;-86
2021/01/30 03:25:53;;;;;;;15.30;10.45;;;3.60;97.80;;;;;;5001473;28;20378;-85
2021/01/30 03:28:19;;;;;;;17.05;11.43;;;3.60;97.80;;;;;;5018207;28;21014;-86
2021/01/30 03:30:45;;;;;;;16.88;11.63;;;3.50;97.70;;;;;;5014585;28;20120;-85
2021/01/30 03:33:11;;;;;;;15.85;10.95;;;3.60;97.60;;;;;;5010914;28;20021;-87
2021/01/30 03:35:37;;;;;;;15.57;10.88;;;3.60;97.60;;;;;;5023385;28;20025;-86
2021/01/30 03:38:03;;;;;;;14.38;10.10;;;3.50;97.70;;;;;;5017707;28;20026;-86
2021/01/30 03:40:29;;;;;;;15.15;10.07;;;3.50;97.70;;;;;;5010469;28;20030;-88
2021/01/30 03:42:55;;;;;;;12.95;9.25;;;3.50;97.70;;;;;;5032213;28;20366;-87
2021/01/30 03:45:27;;;;;;;14.70;9.80;;;3.50;97.70;;;;;;5034269;28;20108;-87
2021/01/30 03:47:52;;;;;;;15.77;9.93;;;3.50;97.70;;;;;;5006111;28;20036;-87
2021/01/30 03:50:18;;;;;;;15.82;10.38;;;3.50;97.70;;;;;;5030714;28;20525;-87
2021/01/30 03:52:44;;;;;;;16.27;10.90;;;3.50;97.70;;;;;;5033438;28;20048;-87
2021/01/30 03:55:11;;;;;;;15.35;10.52;;;3.50;97.60;;;;;;5024023;28;20052;-87
2021/01/30 03:57:37;;;;;;;15.23;10.82;;;3.50;97.60;;;;;;5015499;28;20046;-87
2021/01/30 04:00:11;;;;;;;14.48;10.02;;;3.40;97.60;;;;;;5010533;28;20061;-85
2021/01/30 04:02:37;;;;;;;14.70;9.52;;;3.40;97.60;;;;;;5003656;28;20117;-87
2021/01/30 04:05:03;;;;;;;14.13;9.98;;;3.40;97.70;;;;;;5040732;28;20064;-85
2021/01/30 04:07:28;;;;;;;16.10;10.52;;;3.40;97.60;;;;;;4999840;28;20034;-84
2021/01/30 04:09:54;;;;;;;17.63;11.25;;;3.40;97.60;;;;;;4992858;28;20041;-86
2021/01/30 04:12:20;;;;;;;15.20;10.18;;;3.40;97.60;;;;;;5003202;28;20053;-87
2021/01/30 04:14:45;;;;;;;13.57;9.45;;;3.40;97.50;;;;;;5024437;28;20065;-86
2021/01/30 04:17:11;;;;;;;13.68;9.88;;;3.40;97.60;;;;;;5019149;28;20180;-87
2021/01/30 04:19:37;;;;;;;14.63;11.23;;;3.30;97.50;;;;;;5013303;28;20080;-87
2021/01/30 04:22:04;;;;;;;14.75;10.98;;;3.30;97.20;;;;;;5020222;28;20037;-88
2021/01/30 04:24:31;;;;;;;14.05;9.57;;;3.30;96.60;;;;;;5012448;28;20100;-87
2021/01/30 04:26:56;;;;;;;14.38;10.30;;;3.20;96.70;;;;;;5000000;28;20033;-87
2021/01/30 04:29:22;;;;;;;12.73;9.45;;;3.20;96.80;;;;;;5012996;28;20036;-87
2021/01/30 04:31:56;;;;;;;12.13;8.90;;;3.10;96.90;;;;;;5026492;28;20057;-87
2021/01/30 04:34:23;;;;;;;13.98;9.05;;;3.10;97.10;;;;;;5012999;28;20034;-87
2021/01/30 04:36:48;;;;;;;11.82;8.60;;;3.10;97.10;;;;;;5010479;28;20470;-87
2021/01/30 04:39:15;;;;;;;13.13;9.13;;;3.10;97.20;;;;;;4970651;28;20117;-87
2021/01/30 04:41:49;;;;;;;12.65;8.63;;;3.10;97.10;;;;;;5023459;28;20024;-87
2021/01/30 04:44:26;;;;;;;10.75;8.05;;;3.00;97.10;;;;;;5033376;28;20013;-87
2021/01/30 04:47:08;;;;;;;11.48;7.63;;;3.00;97.10;;;;;;5017299;28;20022;-87
2021/01/30 04:50:09;;;;;;;;;;;3.00;96.90;;;;;;5012933;28;20029;-87
2021/01/30 04:52:44;;;;;;;10.05;7.13;;;2.90;96.80;;;;;;4937613;28;19913;-87
2021/01/30 04:55:47;;;;;;;10.23;7.35;;;2.90;96.70;;;;;;4987630;28;20441;-87
2021/01/30 04:58:46;;;;;;;10.63;7.20;;;2.90;96.90;;;;;;4993307;28;20052;-86
2021/01/30 05:01:39;;;;;;;10.00;6.88;;;2.80;96.80;;;;;;5033434;28;20061;-86
2021/01/30 05:04:07;;;;;;;9.52;6.75;;;2.80;96.80;;;;;;5026697;28;20143;-87
2021/01/30 05:06:56;;;;;;;9.75;6.53;;;2.70;96.50;;;;;;5011533;28;20022;-87
2021/01/30 05:09:27;;;;;;;9.38;6.22;;;2.70;96.60;;;;;;4995928;28;20537;-86
2021/01/30 05:12:27;;;;;;;10.80;7.07;;;2.70;96.70;;;;;;5030461;28;20025;-87
2021/01/30 05:14:59;;;;;;;10.82;6.95;;;2.70;96.80;;;;;;5033250;28;20029;-87
2021/01/30 05:17:31;;;;;;;9.80;6.78;;;2.60;96.80;;;;;;5027650;28;20091;-87
2021/01/30 05:20:03;;;;;;;11.07;6.55;;;2.60;96.60;;;;;;5023538;28;20034;-87
2021/01/30 05:22:39;;;;;;;12.55;7.10;;;2.60;96.70;;;;;;5011457;28;20022;-88
2021/01/30 05:25:09;;;;;;;9.85;6.75;;;2.60;96.60;;;;;;5018451;28;20022;-88
2021/01/30 05:27:42;;;;;;;12.35;7.10;;;2.60;96.70;;;;;;5015029;28;20112;-88
2021/01/30 05:30:36;;;;;;;10.40;6.75;;;2.60;96.70;;;;;;5027116;28;20464;-87
2021/01/30 05:33:36;;;;;;;9.90;6.68;;;2.50;96.60;;;;;;5002292;28;20029;-87
2021/01/30 05:36:06;;;;;;;12.30;6.78;;;2.50;96.70;;;;;;5012369;28;20025;-87
2021/01/30 05:39:02;;;;;;;10.48;7.03;;;2.50;96.80;;;;;;5012180;28;20029;-87
2021/01/30 05:41:54;;;;;;;11.23;7.00;;;2.50;96.90;;;;;;4999328;28;20034;-88
2021/01/30 05:44:51;;;;;;;11.25;7.00;;;2.40;96.90;;;;;;5020720;28;20522;-87
2021/01/30 05:47:22;;;;;;;10.07;6.75;;;2.50;97.00;;;;;;5007400;28;20037;-88
2021/01/30 05:50:02;;;;;;;11.50;7.70;;;2.50;97.10;;;;;;5014595;28;20410;-88
2021/01/30 05:52:32;;;;;;;12.40;8.45;;;2.40;97.10;;;;;;5011289;28;20025;-87
2021/01/30 05:54:58;;;;;;;13.20;8.07;;;2.40;97.10;;;;;;5009669;28;20091;-87
2021/01/30 05:57:23;;;;;;;10.73;7.93;;;2.40;96.90;;;;;;5021981;28;20053;-88
2021/01/30 05:59:57;;;;;;;12.70;8.00;;;2.40;96.90;;;;;;5028994;28;20461;-87
2021/01/30 06:02:28;;;;;;;11.98;7.68;;;2.40;96.90;;;;;;5018458;28;20084;-87
2021/01/30 06:04:54;;;;;;;10.95;7.18;;;2.40;96.80;;;;;;5021154;28;20019;-87
2021/01/30 06:07:28;;;;;;;10.15;7.03;;;2.40;96.90;;;;;;5022250;28;20814;-88
2021/01/30 06:09:54;;;;;;;11.57;7.35;;;2.40;97.00;;;;;;5029903;28;20021;-88
2021/01/30 06:12:31;;;;;;;10.05;6.80;;;2.40;97.00;;;;;;4998436;28;20546;-87
2021/01/30 06:15:10;;;;;;;10.52;7.15;;;2.40;96.80;;;;;;5013071;28;20030;-87
2021/01/30 06:17:36;;;;;;;10.93;6.88;;;2.40;96.80;;;;;;5013921;28;20021;-84
2021/01/30 06:20:19;;;;;;;9.32;6.32;;;2.40;96.60;;;;;;4999797;28;20077;-85
2021/01/30 06:23:05;;;;;;;8.27;5.75;;;2.40;96.70;;;;;;5027196;28;20462;-85
2021/01/30 06:25:37;;;;;;;9.45;5.95;;;2.40;96.90;;;;;;5012453;28;20032;-85
2021/01/30 06:28:08;;;;;;;9.55;6.63;;;2.30;96.90;;;;;;5009969;28;20116;-88
2021/01/30 06:30:40;;;;;;;8.77;5.75;;;2.30;96.90;;;;;;5001505;28;20048;-87
2021/01/30 06:33:25;;;;;;;8.15;5.43;;;2.30;96.90;;;;;;5007833;28;20022;-86
2021/01/30 06:35:56;;;;;;;11.35;6.43;;;2.30;96.90;;;;;;5011411;28;20462;-87
2021/01/30 06:38:37;;;;;;;10.30;6.95;;;2.30;96.80;;;;;;4998182;28;20061;-87
2021/01/30 06:41:04;;;;;;;10.30;6.07;;;2.30;96.80;;;;;;5013163;28;20021;-88
2021/01/30 06:43:41;;;;;;;9.32;6.07;;;2.30;96.60;;;;;;5004263;28;20191;-85
2021/01/30 06:46:14;;;;;;;8.73;6.07;;;2.30;96.60;;;;;;5014692;28;20017;-84
2021/01/30 06:48:44;;;;;;;9.60;6.28;;;2.30;96.60;;;;;;5022846;28;20026;-86
2021/01/30 06:51:35;;;;;;;10.35;6.68;;;2.30;96.70;;;;;;5016574;28;20018;-85
2021/01/30 06:54:22;;;;;;;8.50;5.97;;;2.30;96.60;;;;;;5035132;28;20021;-86
2021/01/30 06:57:18;;;;;;;9.25;6.20;;;2.30;96.80;;;;;;4998276;28;20351;-86
2021/01/30 06:59:52;;;;;;;10.27;6.65;;;2.30;96.80;;;;;;4998236;28;20127;-86
2021/01/30 07:02:23;;;;;;;8.38;6.10;;;2.30;96.70;;;;;;5007560;28;20382;-85
2021/01/30 07:05:08;;;;;;;10.50;6.78;;;2.30;96.70;;;;;;5013371;28;20026;-86
2021/01/30 07:07:42;;;;;;;8.95;6.00;;;2.30;96.70;;;;;;5004647;28;20447;-86
2021/01/30 07:10:43;;;;;;;12.57;7.05;;;2.30;96.70;;;;;;5033966;28;20025;-85
2021/01/30 07:14:00;;;;;;;11.00;6.70;;;2.30;96.80;;;;;;5011953;28;20374;-85
2021/01/30 07:16:45;;;;;;;10.50;6.82;;;2.30;96.90;;;;;;4986689;28;20040;-86
2021/01/30 07:19:32;;;;;;;11.73;7.07;;;2.30;96.50;;;;;;5025304;28;20049;-86
2021/01/30 07:22:26;;;;;;;11.02;7.25;;;2.30;96.50;;;;;;5020488;28;20028;-86
2021/01/30 07:25:03;;;;;;;11.00;6.40;;;2.20;96.50;;;;;;5013869;28;20497;-86
2021/01/30 07:28:23;;;;;;;11.15;6.90;;;2.20;96.40;;;;;;5034203;28;20499;-86
2021/01/30 07:31:14;;;;;;;13.48;6.75;;;2.30;96.60;;;;;;4974129;28;20034;-86
2021/01/30 07:33:47;;;;;;;11.82;7.05;;;2.20;96.30;;;;;;5003113;28;20159;-86
2021/01/30 07:36:30;;;;;;;9.10;6.18;;;2.20;96.20;;;;;;5013337;28;20113;-85
2021/01/30 07:39:06;;;;;;;12.23;6.47;;;2.20;96.20;;;;;;5009552;28;20034;-86
2021/01/30 07:41:57;;;;;;;8.18;5.55;;;2.20;96.10;;;;;;5007014;28;20048;-86
2021/01/30 07:44:41;;;;;;;10.60;6.63;;;2.10;96.00;;;;;;5026067;28;20506;-86
2021/01/30 07:47:25;;;;;;;8.98;5.68;;;2.10;95.90;;;;;;5011457;28;20036;-86
2021/01/30 07:49:57;;;;;;;10.57;6.45;;;2.10;96.10;;;;;;5011224;28;20025;-86
2021/01/30 07:52:30;;;;;;;9.50;6.22;;;2.10;96.10;;;;;;5025291;28;20044;-85
2021/01/30 07:54:57;;;;;;;10.25;6.38;;;2.10;96.20;;;;;;5025749;28;20512;-86
2021/01/30 07:57:41;;;;;;;10.45;6.00;;;2.10;96.40;;;;;;4994937;28;20140;-86
2021/01/30 08:00:09;;;;;;;9.77;6.32;;;2.10;96.30;;;;;;5006950;28;20051;-86
2021/01/30 08:02:40;;;;;;;10.77;6.35;;;2.10;96.30;;;;;;5023621;28;20132;-86
2021/01/30 08:05:06;;;;;;;11.25;7.32;;;2.10;96.20;;;;;;5007280;28;20080;-87
2021/01/30 08:07:53;;;;;;;11.93;6.63;;;2.10;96.00;;;;;;5012611;28;20428;-86
2021/01/30 08:10:24;;;;;;;9.45;5.90;;;2.10;95.80;;;;;;5022558;28;20034;-85
2021/01/30 08:13:02;;;;;;;9.73;6.32;;;2.10;95.70;;;;;;5013219;28;20049;-86
2021/01/30 08:15:36;;;;;;;10.30;6.50;;;2.00;95.80;;;;;;5005229;28;20057;-85
2021/01/30 08:18:07;;;;;;;9.05;6.10;;;2.00;95.70;;;;;;5022674;28;20025;-86
2021/01/30 08:20:49;;;;;;;;;;;2.00;95.80;;;;;;5034651;28;20029;-86
2021/01/30 08:23:15;;;;;;;10.23;6.40;;;2.00;95.80;;;;;;5015480;28;19920;-86
2021/01/30 08:25:44;;;;;;;11.23;7.35;;;2.00;95.60;;;;;;5027757;28;20397;-86
2021/01/30 08:28:37;;;;;;;12.63;7.70;;;2.00;95.50;;;;;;5032555;28;20032;-86
2021/01/30 08:31:03;;;;;;;9.93;6.28;;;2.00;95.50;;;;;;5012681;28;20030;-86
2021/01/30 08:34:00;;;;;;;11.63;7.15;;;2.00;95.40;;;;;;4996555;28;20041;-86
2021/01/30 08:36:43;;;;;;;11.27;6.93;;;2.00;95.40;;;;;;5008975;28;20025;-86
2021/01/30 08:39:18;;;;;;;10.02;6.07;;;2.00;95.20;;;;;;5009167;28;20029;-85
2021/01/30 08:41:48;;;;;;;9.80;6.50;;;2.00;95.40;;;;;;5004915;28;20033;-86
2021/01/30 08:44:33;;;;;;;11.00;7.10;;;2.00;95.60;;;;;;5009000;28;20089;-85
2021/01/30 08:47:10;;;;;;;11.10;6.60;;;2.00;95.30;;;;;;5007635;28;20034;-85
2021/01/30 08:49:37;;;;;;;12.30;7.40;;;2.00;95.30;;;;;;5008776;28;20025;-86
2021/01/30 08:52:14;;;;;;;10.90;7.10;;;1.90;95.30;;;;;;4996654;28;20034;-86
2021/01/30 08:54:41;;;;;;;10.15;6.65;;;2.00;95.30;;;;;;5022186;28;20026;-86
2021/01/30 08:57:32;;;;;;;9.75;6.15;;;2.00;95.10;;;;;;5009357;28;20044;-87
2021/01/30 08:59:59;;;;;;;9.05;5.88;;;2.00;95.10;;;;;;5013630;28;20129;-87
2021/01/30 09:02:27;;;;;;;9.15;6.22;;;2.00;95.10;;;;;;5017486;28;20037;-86
2021/01/30 09:05:10;;;;;;;10.63;6.50;;;1.90;95.30;;;;;;5001405;28;20022;-87
2021/01/30 09:07:48;;;;;;;10.25;6.63;;;2.00;95.60;;;;;;5032192;28;20029;-87
2021/01/30 09:10:23;;;;;;;10.65;6.07;;;2.00;95.70;;;;;;5022976;28;20026;-87
2021/01/30 09:12:54;;;;;;;11.00;7.20;;;2.10;95.80;;;;;;5030119;28;20500;-85
2021/01/30 09:15:54;;;;;;;10.23;6.53;;;2.10;95.70;;;;;;5011163;28;20022;-86
2021/01/30 09:18:25;;;;;;;10.70;6.80;;;2.10;95.50;;;;;;5021219;28;20116;-86
2021/01/30 09:21:05;;;;;;;9.48;6.18;;;2.10;95.40;;;;;;5008934;28;20389;-86
2021/01/30 09:23:40;;;;;;;9.80;6.47;;;2.20;95.60;;;;;;5005453;28;20030;-85
2021/01/30 09:26:29;;;;;;;11.55;7.25;;;2.20;95.60;;;;;;5027545;28;20028;-86
2021/01/30 09:29:03;;;;;;;11.48;7.22;;;2.20;95.60;;;;;;5003992;28;20018;-87
2021/01/30 09:31:29;;;;;;;10.80;6.90;;;2.20;95.60;;;;;;5005578;28;20017;-87
2021/01/30 09:34:05;;;;;;;11.52;7.43;;;2.20;95.30;;;;;;4998095;28;20493;-87
2021/01/30 09:36:43;;;;;;;10.73;7.22;;;2.20;95.00;;;;;;5011920;28;20017;-87
2021/01/30 09:39:21;;;;;;;10.65;6.85;;;2.20;94.90;;;;;;5035254;28;20010;-81
2021/01/30 09:41:47;;;;;;;11.65;7.53;;;2.20;95.00;;;;;;5028710;28;20029;-83
2021/01/30 09:44:28;;;;;;;10.82;7.55;;;2.20;94.90;;;;;;5023171;28;20026;-85
2021/01/30 09:46:56;;;;;;;11.02;7.45;;;2.20;94.70;;;;;;5008710;28;20038;-86
2021/01/30 09:49:33;;;;;;;11.50;7.45;;;2.20;94.80;;;;;;5009398;28;20103;-86
2021/01/30 09:52:00;;;;;;;12.88;7.72;;;2.30;95.00;;;;;;5015629;28;20022;-86
2021/01/30 09:54:28;;;;;;;11.20;7.18;;;2.30;95.00;;;;;;5004561;28;20038;-88
2021/01/30 09:57:18;;;;;;;;;;;;;;;;;;;;;
2021/01/30 09:59:44;;;;;;;12.25;7.85;;;2.30;95.20;;;;;;5023906;28;20027;-86
2021/01/30 10:02:16;;;;;;;12.15;7.60;;;2.30;95.10;;;;;;4998273;28;20456;-87
2021/01/30 10:04:42;;;;;;;11.23;7.47;;;2.40;95.20;;;;;;5011919;28;20076;-87
2021/01/30 10:07:11;;;;;;;12.27;8.15;;;2.40;94.90;;;;;;5028191;28;20029;-87
2021/01/30 10:09:40;;;;;;;12.95;8.32;;;2.40;94.90;;;;;;5016071;28;20052;-87
2021/01/30 10:12:06;;;;;;;11.45;7.47;;;2.40;94.50;;;;;;5032730;28;20045;-83
2021/01/30 10:14:38;;;;;;;12.02;7.85;;;2.40;94.60;;;;;;5035656;28;20026;-87
2021/01/30 10:17:22;;;;;;;13.90;7.75;;;2.40;94.50;;;;;;5020957;28;20034;-85
2021/01/30 10:20:08;;;;;;;12.23;7.78;;;2.40;94.70;;;;;;5007285;28;20033;-86
2021/01/30 10:22:42;;;;;;;13.13;8.30;;;2.40;94.70;;;;;;5025035;28;20018;-85
2021/01/30 10:25:12;;;;;;;11.73;7.80;;;2.50;94.70;;;;;;5023940;28;20026;-86
2021/01/30 10:27:38;;;;;;;12.20;7.82;;;2.50;94.60;;;;;;5030914;28;20021;-86
2021/01/30 10:30:09;;;;;;;12.07;7.85;;;2.50;94.60;;;;;;5026096;28;20032;-85
2021/01/30 10:32:54;;;;;;;11.00;7.55;;;2.50;94.70;;;;;;5031842;28;20052;-86
2021/01/30 10:35:34;;;;;;;12.38;8.05;;;2.60;94.70;;;;;;5022420;28;20076;-85
2021/01/30 10:38:07;;;;;;;10.25;7.38;;;2.60;94.60;;;;;;5017220;28;20041;-86
2021/01/30 10:40:43;;;;;;;12.52;7.95;;;2.60;94.60;;;;;;5034598;28;20100;-86
2021/01/30 10:43:15;;;;;;;12.57;7.82;;;2.60;94.40;;;;;;5034172;28;20167;-86
2021/01/30 10:45:44;;;;;;;12.20;8.25;;;2.60;94.60;;;;;;5030490;28;20095;-85
2021/01/30 10:48:14;;;;;;;10.68;7.95;;;2.70;94.70;;;;;;5015461;28;20033;-84
2021/01/30 10:50:44;;;;;;;10.60;7.20;;;2.70;94.70;;;;;;5030464;28;20030;-88
2021/01/30 10:53:23;;;;;;;11.30;7.30;;;2.70;94.60;;;;;;5012650;28;20029;-86
2021/01/30 10:55:51;;;;;;;9.38;6.57;;;2.70;94.50;;;;;;5020647;28;20387;-86
2021/01/30 10:58:32;;;;;;;9.50;6.30;;;2.80;94.50;;;;;;5028891;28;20041;-86
2021/01/30 11:01:00;;;;;;;9.13;6.75;;;2.80;94.70;;;;;;5023880;28;20025;-86
2021/01/30 11:03:40;;;;;;;9.98;7.05;;;2.80;94.60;;;;;;5033875;28;20079;-85
2021/01/30 11:06:20;;;;;;;9.75;6.50;;;2.80;94.80;;;;;;5034091;28;20045;-85
2021/01/30 11:08:45;;;;;;;10.23;6.85;;;2.90;94.70;;;;;;5011571;28;20034;-84
2021/01/30 11:11:21;;;;;;;9.63;6.35;;;2.90;94.80;;;;;;5023960;28;20024;-86
2021/01/30 11:13:47;;;;;;;9.45;6.82;;;3.00;94.80;;;;;;5034033;28;20469;-86
2021/01/30 11:16:48;;;;;;;10.80;6.90;;;3.00;94.40;;;;;;5015192;28;20113;-84
2021/01/30 11:19:20;;;;;;;8.88;6.32;;;3.00;94.20;;;;;;4943511;28;20038;-86
2021/01/30 11:21:45;;;;;;;8.23;5.63;;;3.00;93.90;;;;;;5006583;28;20045;-86
2021/01/30 11:24:25;;;;;;;9.45;6.32;;;3.00;94.00;;;;;;4982113;28;20033;-84
2021/01/30 11:26:51;;;;;;;10.50;6.25;;;3.00;94.30;;;;;;5020581;28;20031;-86
2021/01/30 11:29:42;;;;;;;9.25;6.05;;;3.00;94.20;;;;;;5003548;28;20025;-85
2021/01/30 11:32:12;;;;;;;10.05;6.75;;;3.00;94.00;;;;;;5025324;28;20033;-86
2021/01/30 11:34:39;;;;;;;9.25;6.53;;;3.10;93.60;;;;;;5026759;28;20025;-85
2021/01/30 11:37:06;;;;;;;9.25;6.72;;;3.00;93.60;;;;;;5012324;28;20489;-85
2021/01/30 11:39:34;;;;;;;8.50;6.03;;;3.10;93.70;;;;;;5012762;28;20017;-85
2021/01/30 11:41:59;;;;;;;8.32;6.22;;;3.10;94.00;;;;;;5019158;28;20045;-85
2021/01/30 11:44:26;;;;;;;7.70;5.40;;;3.10;94.00;;;;;;5011080;28;20029;-86
2021/01/30 11:46:52;;;;;;;8.88;6.20;;;3.20;94.10;;;;;;4994699;28;20038;-85
2021/01/30 11:49:18;;;;;;;9.60;6.93;;;3.20;94.10;;;;;;5005063;28;20124;-85
2021/01/30 11:51:44;;;;;;;12.30;7.93;;;3.20;93.80;;;;;;4995323;28;20109;-86
2021/01/30 11:54:11;;;;;;;10.13;6.70;;;3.20;93.70;;;;;;4981827;28;20041;-86
2021/01/30 11:56:38;;;;;;;9.95;6.70;;;3.20;93.80;;;;;;5015936;28;20054;-86
2021/01/30 11:59:04;;;;;;;9.18;6.38;;;3.20;94.00;;;;;;4995975;28;20685;-86
2021/01/30 12:01:31;;;;;;;10.68;6.93;;;3.20;94.00;;;;;;4992882;28;20034;-86
2021/01/30 12:04:00;;;;;;;9.93;6.85;;;3.20;93.70;;;;;;5010661;28;20429;-85
2021/01/30 12:06:26;;;;;;;10.18;7.47;;;3.20;93.90;;;;;;4992749;28;20032;-86
2021/01/30 12:08:52;;;;;;;9.90;7.50;;;3.30;94.00;;;;;;5024370;28;20021;-86
2021/01/30 12:11:18;;;;;;;10.85;7.82;;;3.30;94.10;;;;;;4992907;28;20052;-86
2021/01/30 12:13:44;;;;;;;11.15;7.50;;;3.30;93.60;;;;;;5008414;28;20018;-85
2021/01/30 12:16:10;;;;;;;11.40;8.10;;;3.30;93.80;;;;;;5017342;28;20087;-85
2021/01/30 12:18:36;;;;;;;10.50;7.20;;;3.30;94.00;;;;;;4999201;28;20029;-85
2021/01/30 12:21:03;;;;;;;11.95;7.60;;;3.30;94.10;;;;;;4997424;28;20036;-85
2021/01/30 12:23:28;;;;;;;10.70;7.28;;;3.30;94.20;;;;;;5015800;28;20045;-85
2021/01/30 12:25:54;;;;;;;12.77;8.23;;;3.40;94.30;;;;;;5013352;28;20421;-85
2021/01/30 12:28:32;;;;;;;11.13;7.68;;;3.40;94.40;;;;;;5022700;28;20030;-86
2021/01/30 12:30:58;;;;;;;11.10;7.95;;;3.40;94.50;;;;;;5016290;28;20033;-86
2021/01/30 12:33:24;;;;;;;12.45;8.27;;;3.50;94.30;;;;;;5011108;28;20033;-87
2021/01/30 12:35:50;;;;;;;12.40;7.88;;;3.50;94.30;;;;;;5011373;28;20037;-88
2021/01/30 12:38:16;;;;;;;10.63;7.45;;;3.50;94.30;;;;;;5030415;28;20029;-87
2021/01/30 12:40:46;;;;;;;13.15;7.82;;;3.50;94.00;;;;;;4990936;28;20018;-86
2021/01/30 12:43:16;;;;;;;10.17;6.87;;;3.50;93.80;;;;;;4996150;28;20049;-87
2021/01/30 12:45:43;;;;;;;10.77;7.43;;;3.50;93.60;;;;;;5010023;28;20095;-88
2021/01/30 12:48:09;;;;;;;9.93;7.25;;;3.50;93.30;;;;;;5003817;28;20029;-88
2021/01/30 12:50:35;;;;;;;11.98;8.15;;;3.50;93.50;;;;;;5017389;28;20029;-83
2021/01/30 12:53:01;;;;;;;10.02;7.43;;;3.50;93.50;;;;;;5003593;28;20036;-87
2021/01/30 12:55:27;;;;;;;11.07;7.22;;;3.50;93.30;;;;;;5015602;28;20060;-86
2021/01/30 12:57:53;;;;;;;11.77;7.75;;;3.50;93.30;;;;;;5015802;28;20060;-90
2021/01/30 13:00:27;;;;;;;11.05;7.45;;;3.50;93.60;;;;;;5032538;28;20485;-89
2021/01/30 13:02:53;;;;;;;10.80;7.53;;;3.60;93.50;;;;;;5032515;28;20025;-88
2021/01/30 13:05:20;;;;;;;10.63;7.38;;;3.60;93.60;;;;;;5015413;28;20100;-89
2021/01/30 13:07:46;;;;;;;10.30;7.03;;;3.60;93.40;;;;;;5013618;28;20121;-89
2021/01/30 13:10:18;;;;;;;11.65;7.57;;;3.70;93.40;;;;;;5011146;28;20021;-90
2021/01/30 13:12:44;;;;;;;25.17;7.75;;;3.60;93.40;;;;;;5016118;28;20037;-89
2021/01/30 13:15:10;;;;;;;14.05;7.85;;;3.60;93.30;;;;;;5033987;28;20029;-91
2021/01/30 13:17:36;;;;;;;10.48;7.13;;;3.60;93.40;;;;;;5013129;28;20371;-90
2021/01/30 13:20:04;;;;;;;11.63;7.80;;;3.60;93.40;;;;;;4996636;28;20044;-84
2021/01/30 13:22:33;;;;;;;10.43;7.10;;;3.60;92.90;;;;;;4987638;28;20108;-84